createdAt,value
2022-12-01T00:01:12.685Z,38.43
2022-12-01T00:03:39.697Z,38.80
2022-12-01T00:06:07.954Z,45.53
2022-12-01T00:08:34.864Z,37.47
2022-12-01T00:11:06.214Z,38.00
2022-12-01T00:13:33.533Z,39.90
2022-12-01T00:16:10.564Z,41.77
2022-12-01T00:18:37.537Z,41.77
2022-12-01T00:21:04.374Z,39.33
2022-12-01T00:23:31.821Z,42.33
2022-12-01T00:26:05.298Z,42.47
2022-12-01T00:28:33.516Z,39.17
2022-12-01T00:31:00.324Z,42.77
2022-12-01T00:33:27.125Z,43.00
2022-12-01T00:36:00.547Z,41.17
2022-12-01T00:38:27.541Z,45.43
2022-12-01T00:40:54.441Z,38.10
2022-12-01T00:43:21.244Z,43.40
2022-12-01T00:45:48.154Z,41.97
2022-12-01T00:48:15.037Z,37.67
2022-12-01T00:50:41.865Z,41.20
2022-12-01T00:53:08.757Z,39.50
2022-12-01T00:55:35.611Z,41.13
2022-12-01T00:58:02.385Z,37.77
2022-12-01T01:00:29.201Z,42.73
2022-12-01T01:02:56.131Z,48.63
2022-12-01T01:05:23.467Z,44.40
2022-12-01T01:07:50.326Z,48.27
2022-12-01T01:10:17.318Z,49.37
2022-12-01T01:12:44.102Z,52.17
2022-12-01T01:15:11.686Z,54.47
2022-12-01T01:17:39.560Z,53.17
2022-12-01T01:20:07.046Z,52.57
2022-12-01T01:22:35.196Z,52.50
2022-12-01T01:25:01.966Z,53.17
2022-12-01T01:27:28.731Z,53.50
2022-12-01T01:29:55.593Z,63.90
2022-12-01T01:32:22.362Z,58.90
2022-12-01T01:34:49.155Z,62.70
2022-12-01T01:37:15.953Z,54.83
2022-12-01T01:39:42.740Z,57.83
2022-12-01T01:42:14.739Z,61.00
2022-12-01T01:44:54.225Z,66.13
2022-12-01T01:47:25.322Z,63.60
2022-12-01T01:49:52.524Z,57.23
2022-12-01T01:52:19.309Z,64.53
2022-12-01T01:54:48.008Z,64.00
2022-12-01T01:57:17.133Z,59.63
2022-12-01T01:59:46.222Z,62.20
2022-12-01T02:02:13.322Z,60.30
2022-12-01T02:04:42.330Z,53.20
2022-12-01T02:07:09.485Z,58.20
2022-12-01T02:09:36.612Z,58.60
2022-12-01T02:12:15.445Z,52.60
2022-12-01T02:15:03.011Z,60.00
2022-12-01T02:17:31.361Z,62.97
2022-12-01T02:20:46.975Z,63.07
2022-12-01T02:23:39.060Z,60.43
2022-12-01T02:26:24.290Z,65.90
2022-12-01T02:29:06.106Z,60.93
2022-12-01T02:31:51.413Z,67.30
2022-12-01T02:34:30.403Z,68.07
2022-12-01T02:37:25.086Z,71.30
2022-12-01T02:40:17.064Z,65.57
2022-12-01T02:43:12.121Z,63.33
2022-12-01T02:46:10.570Z,68.63
2022-12-01T02:48:43.051Z,65.90
2022-12-01T02:51:25.742Z,70.00
2022-12-01T02:53:52.561Z,66.37
2022-12-01T02:56:21.097Z,60.07
2022-12-01T02:58:47.893Z,74.93
2022-12-01T03:01:18.275Z,61.27
2022-12-01T03:04:10.949Z,70.70
2022-12-01T03:06:52.505Z,68.80
2022-12-01T03:09:43.628Z,70.50
2022-12-01T03:12:19.465Z,67.00
2022-12-01T03:14:54.029Z,71.77
2022-12-01T03:17:24.310Z,86.50
2022-12-01T03:19:55.823Z,70.93
2022-12-01T03:22:33.882Z,69.10
2022-12-01T03:25:00.704Z,69.93
2022-12-01T03:27:28.921Z,73.07
2022-12-01T03:29:56.996Z,75.60
2022-12-01T03:32:25.011Z,72.10
2022-12-01T03:34:57.501Z,69.10
2022-12-01T03:37:26.084Z,72.40
2022-12-01T03:39:59.933Z,69.80
2022-12-01T03:42:50.336Z,77.23
2022-12-01T03:45:24.668Z,78.67
2022-12-01T03:47:51.821Z,76.83
2022-12-01T03:50:19.037Z,71.83
2022-12-01T03:53:06.911Z,82.17
2022-12-01T03:55:37.960Z,77.30
2022-12-01T03:58:11.609Z,77.23
2022-12-01T04:00:38.445Z,73.07
2022-12-01T04:03:05.397Z,77.23
2022-12-01T04:05:33.519Z,75.23
2022-12-01T04:08:00.766Z,78.00
2022-12-01T04:10:27.669Z,78.03
2022-12-01T04:12:59.247Z,82.20
2022-12-01T04:15:26.264Z,76.23
2022-12-01T04:17:53.204Z,77.77
2022-12-01T04:20:20.207Z,78.80
2022-12-01T04:22:47.374Z,81.67
2022-12-01T04:25:14.178Z,69.73
2022-12-01T04:27:41.032Z,74.30
2022-12-01T04:30:08.365Z,72.90
2022-12-01T04:32:42.342Z,65.47
2022-12-01T04:35:10.190Z,76.20
2022-12-01T04:37:37.218Z,67.53
2022-12-01T04:40:05.788Z,67.73
2022-12-01T04:42:32.597Z,65.77
2022-12-01T04:44:59.401Z,65.23
2022-12-01T04:47:26.229Z,63.63
2022-12-01T04:49:53.201Z,63.13
2022-12-01T04:52:20.012Z,57.90
2022-12-01T04:54:46.927Z,69.57
2022-12-01T04:57:13.728Z,60.33
2022-12-01T04:59:40.562Z,66.47
2022-12-01T05:02:07.662Z,65.63
2022-12-01T05:04:38.489Z,66.17
2022-12-01T05:07:05.525Z,63.13
2022-12-01T05:09:32.395Z,63.50
2022-12-01T05:11:59.166Z,61.60
2022-12-01T05:14:26.025Z,66.03
2022-12-01T05:16:54.456Z,64.10
2022-12-01T05:19:39.677Z,65.93
2022-12-01T05:22:06.480Z,65.73
2022-12-01T05:24:33.257Z,66.83
2022-12-01T05:27:00.122Z,67.37
2022-12-01T05:29:26.919Z,59.10
2022-12-01T05:31:53.782Z,69.93
2022-12-01T05:34:20.686Z,62.07
2022-12-01T05:36:47.432Z,66.87
2022-12-01T05:39:14.352Z,69.13
2022-12-01T05:41:41.152Z,59.53
2022-12-01T05:44:07.904Z,69.03
2022-12-01T05:46:34.713Z,69.40
2022-12-01T05:49:01.486Z,64.27
2022-12-01T05:51:28.253Z,62.17
2022-12-01T05:53:55.261Z,63.40
2022-12-01T05:56:22.219Z,67.63
2022-12-01T05:58:48.995Z,71.57
2022-12-01T06:01:15.982Z,67.27
2022-12-01T06:03:42.892Z,60.27
2022-12-01T06:06:09.793Z,71.43
2022-12-01T06:08:36.642Z,64.43
2022-12-01T06:11:03.428Z,71.77
2022-12-01T06:13:30.253Z,60.20
2022-12-01T06:16:00.676Z,65.70
2022-12-01T06:18:27.764Z,71.43
2022-12-01T06:20:54.544Z,61.33
2022-12-01T06:23:22.695Z,63.60
2022-12-01T06:25:51.055Z,69.77
2022-12-01T06:28:17.868Z,64.40
2022-12-01T06:30:44.756Z,61.67
2022-12-01T06:33:11.684Z,60.37
2022-12-01T06:35:38.576Z,60.80
2022-12-01T06:38:05.522Z,58.93
2022-12-01T06:40:32.494Z,65.03
2022-12-01T06:43:05.094Z,57.40
2022-12-01T06:45:31.946Z,66.97
2022-12-01T06:47:59.833Z,69.80
2022-12-01T06:50:26.712Z,63.60
2022-12-01T06:52:53.923Z,85.17
2022-12-01T06:55:20.748Z,75.27
2022-12-01T06:57:47.812Z,78.83
2022-12-01T07:00:15.433Z,83.73
2022-12-01T07:02:42.444Z,70.93
2022-12-01T07:05:10.678Z,78.87
2022-12-01T07:07:38.731Z,88.50
2022-12-01T07:10:06.406Z,81.83
2022-12-01T07:12:33.224Z,79.27
2022-12-01T07:15:00.116Z,90.70
2022-12-01T07:17:26.923Z,87.17
2022-12-01T07:19:53.700Z,81.60
2022-12-01T07:22:20.529Z,87.60
2022-12-01T07:24:47.330Z,86.87
2022-12-01T07:27:14.233Z,91.57
2022-12-01T07:29:41.097Z,81.43
2022-12-01T07:32:07.940Z,90.90
2022-12-01T07:34:36.776Z,81.93
2022-12-01T07:37:03.614Z,79.83
2022-12-01T07:39:30.420Z,96.93
2022-12-01T07:41:57.238Z,91.57
2022-12-01T07:44:24.064Z,83.83
2022-12-01T07:46:50.835Z,77.50
2022-12-01T07:49:17.629Z,83.30
2022-12-01T07:51:45.435Z,81.27
2022-12-01T07:54:14.319Z,94.73
2022-12-01T07:56:41.306Z,72.97
2022-12-01T07:59:08.146Z,75.83
2022-12-01T08:01:35.217Z,71.40
2022-12-01T08:04:02.154Z,60.40
2022-12-01T08:06:29.010Z,69.33
2022-12-01T08:08:55.918Z,68.63
2022-12-01T08:11:24.391Z,64.83
2022-12-01T08:13:51.476Z,77.37
2022-12-01T08:16:19.586Z,60.60
2022-12-01T08:18:46.437Z,57.13
2022-12-01T08:21:16.124Z,69.37
2022-12-01T08:23:43.204Z,60.13
2022-12-01T08:26:15.783Z,62.30
2022-12-01T08:28:42.860Z,66.23
2022-12-01T08:31:13.810Z,69.73
2022-12-01T08:33:40.733Z,67.87
2022-12-01T08:36:07.816Z,68.80
2022-12-01T08:38:34.730Z,75.33
2022-12-01T08:41:02.820Z,73.27
2022-12-01T08:43:56.126Z,69.60
2022-12-01T08:46:16.516Z,69.07
2022-12-01T08:48:43.398Z,74.20
2022-12-01T08:51:14.542Z,73.73
2022-12-01T08:53:45.620Z,71.27
2022-12-01T08:56:24.206Z,77.60
2022-12-01T08:58:53.878Z,85.70
2022-12-01T09:01:20.951Z,85.97
2022-12-01T09:03:47.774Z,86.77
2022-12-01T09:06:20.829Z,81.93
2022-12-01T09:08:47.705Z,82.83
2022-12-01T09:11:18.593Z,90.27
2022-12-01T09:13:51.330Z,78.30
2022-12-01T09:16:21.324Z,79.73
2022-12-01T09:18:48.274Z,81.97
2022-12-01T09:21:20.616Z,78.80
2022-12-01T09:23:47.561Z,74.33
2022-12-01T09:26:18.240Z,78.93
2022-12-01T09:28:46.036Z,70.57
2022-12-01T09:31:13.408Z,74.20
2022-12-01T09:33:40.280Z,70.47
2022-12-01T09:36:08.901Z,74.83
2022-12-01T09:38:36.120Z,75.53
2022-12-01T09:41:06.194Z,69.97
2022-12-01T09:43:45.809Z,79.70
2022-12-01T09:46:19.760Z,78.23
2022-12-01T09:48:47.588Z,71.87
2022-12-01T09:51:22.038Z,68.87
2022-12-01T09:53:56.779Z,65.97
2022-12-01T09:56:25.086Z,79.60
2022-12-01T09:58:59.837Z,67.03
2022-12-01T10:01:37.747Z,78.47
2022-12-01T10:04:33.809Z,69.10
2022-12-01T10:07:00.782Z,62.33
2022-12-01T10:09:38.234Z,63.90
2022-12-01T10:12:14.710Z,65.17
2022-12-01T10:14:41.579Z,55.37
2022-12-01T10:17:27.190Z,58.13
2022-12-01T10:20:15.785Z,65.10
2022-12-01T10:23:01.572Z,63.80
2022-12-01T10:25:31.538Z,60.30
2022-12-01T10:28:56.261Z,55.93
2022-12-01T10:31:40.997Z,55.83
2022-12-01T10:34:14.109Z,58.37
2022-12-01T10:36:40.886Z,54.97
2022-12-01T10:39:07.738Z,57.17
2022-12-01T10:41:36.253Z,54.83
2022-12-01T10:44:05.520Z,57.60
2022-12-01T10:46:51.874Z,60.50
2022-12-01T10:49:19.217Z,55.37
2022-12-01T10:51:51.701Z,60.87
2022-12-01T10:54:18.847Z,69.50
2022-12-01T10:56:48.100Z,76.53
2022-12-01T10:59:20.836Z,61.10
2022-12-01T11:01:48.233Z,55.17
2022-12-01T11:04:46.491Z,47.17
2022-12-01T11:07:33.160Z,51.50
2022-12-01T11:10:21.929Z,52.07
2022-12-01T11:12:59.561Z,53.73
2022-12-01T11:15:28.421Z,47.67
2022-12-01T11:18:30.262Z,53.87
2022-12-01T11:21:07.658Z,44.77
2022-12-01T11:23:53.879Z,48.13
2022-12-01T11:26:27.470Z,53.70
2022-12-01T11:29:04.781Z,44.03
2022-12-01T11:31:42.493Z,49.03
2022-12-01T11:34:21.169Z,39.07
2022-12-01T11:36:50.491Z,46.13
2022-12-01T11:39:26.259Z,46.37
2022-12-01T11:41:57.537Z,44.83
2022-12-01T11:50:11.073Z,41.97
2022-12-01T11:52:46.126Z,41.30
2022-12-01T11:55:12.953Z,40.17
2022-12-01T11:57:42.985Z,48.50
2022-12-01T12:00:17.142Z,37.87
2022-12-01T12:03:02.823Z,43.83
2022-12-01T12:05:45.814Z,37.97
2022-12-01T12:08:31.223Z,36.30
2022-12-01T12:11:29.665Z,33.60
2022-12-01T12:13:56.601Z,36.23
2022-12-01T12:16:31.984Z,34.60
2022-12-01T12:19:07.421Z,33.33
2022-12-01T12:21:39.162Z,33.10
2022-12-01T12:24:17.768Z,29.90
2022-12-01T12:27:03.878Z,32.77
2022-12-01T12:29:36.477Z,33.83
2022-12-01T12:32:15.140Z,35.27
2022-12-01T12:34:58.590Z,30.13
2022-12-01T12:37:31.193Z,31.27
2022-12-01T12:40:19.617Z,39.00
2022-12-01T12:43:14.211Z,46.30
2022-12-01T12:46:11.287Z,34.63
2022-12-01T12:49:19.401Z,32.63
2022-12-01T12:52:08.654Z,28.77
2022-12-01T12:54:53.567Z,30.13
2022-12-01T12:57:36.653Z,28.07
2022-12-01T13:00:07.195Z,28.87
2022-12-01T13:02:42.693Z,31.33
2022-12-01T13:05:36.194Z,32.80
2022-12-01T13:08:13.790Z,37.43
2022-12-01T13:10:46.552Z,33.70
2022-12-01T13:13:19.189Z,35.37
2022-12-01T13:15:46.540Z,34.90
2022-12-01T13:18:25.113Z,33.80
2022-12-01T13:20:52.261Z,33.93
2022-12-01T13:23:21.170Z,37.03
2022-12-01T13:25:50.520Z,38.47
2022-12-01T13:28:28.044Z,32.83
2022-12-01T13:31:02.737Z,39.13
2022-12-01T13:33:29.901Z,38.10
2022-12-01T13:36:23.020Z,38.17
2022-12-01T13:38:43.599Z,35.30
2022-12-01T13:41:19.581Z,39.77
2022-12-01T13:44:21.153Z,42.43
2022-12-01T13:46:47.978Z,35.37
2022-12-01T13:49:42.594Z,41.87
2022-12-01T13:52:21.127Z,36.73
2022-12-01T13:55:08.210Z,38.33
2022-12-01T13:57:45.191Z,41.97
2022-12-01T14:00:28.647Z,36.90
2022-12-01T14:03:13.686Z,33.20
2022-12-01T14:05:40.500Z,29.83
2022-12-01T14:08:23.281Z,35.10
2022-12-01T14:10:56.673Z,33.20
2022-12-01T14:13:23.571Z,34.90
2022-12-01T14:16:00.863Z,36.30
2022-12-01T14:18:30.980Z,33.87
2022-12-01T14:20:57.738Z,32.23
2022-12-01T14:23:29.106Z,33.93
2022-12-01T14:26:02.239Z,35.23
2022-12-01T14:28:55.202Z,37.17
2022-12-01T14:31:25.956Z,36.27
2022-12-01T14:33:53.453Z,32.27
2022-12-01T14:36:32.336Z,40.03
2022-12-01T14:38:59.128Z,35.53
2022-12-01T14:41:46.161Z,38.13
2022-12-01T14:44:43.633Z,40.37
2022-12-01T14:47:10.722Z,38.77
2022-12-01T14:49:56.342Z,33.20
2022-12-01T14:52:29.317Z,33.70
2022-12-01T14:54:58.816Z,35.00
2022-12-01T14:57:30.578Z,42.53
2022-12-01T15:00:17.970Z,36.63
2022-12-01T15:02:52.608Z,36.00
2022-12-01T15:05:21.937Z,39.93
2022-12-01T15:07:54.278Z,35.60
2022-12-01T15:10:35.116Z,38.83
2022-12-01T15:13:24.494Z,37.37
2022-12-01T15:15:53.023Z,34.93
2022-12-01T15:18:24.713Z,43.80
2022-12-01T15:20:51.526Z,34.50
2022-12-01T15:23:18.309Z,41.45
2022-12-01T15:25:45.929Z,34.63
2022-12-01T15:33:46.883Z,34.00
2022-12-01T15:37:18.794Z,33.47
2022-12-01T15:54:47.583Z,33.15
2022-12-01T15:57:19.135Z,28.30
2022-12-01T16:02:57.515Z,27.33
2022-12-01T16:05:32.925Z,27.54
2022-12-01T16:09:06.133Z,29.33
2022-12-01T16:38:43.978Z,22.45
2022-12-01T16:45:02.437Z,29.33
2022-12-01T17:03:29.683Z,37.58
2022-12-01T17:07:04.481Z,35.08
2022-12-01T17:35:41.755Z,42.60
2022-12-01T17:53:49.514Z,46.85
2022-12-01T18:00:08.630Z,41.90
2022-12-01T18:18:15.951Z,36.03
2022-12-01T18:24:34.527Z,36.83
2022-12-01T18:42:41.917Z,36.38
2022-12-01T18:49:04.687Z,39.92
2022-12-01T19:07:12.940Z,37.88
2022-12-01T19:13:32.014Z,40.47
2022-12-01T19:31:39.398Z,27.27
2022-12-01T19:37:57.929Z,31.13
2022-12-01T19:56:06.353Z,28.65
2022-12-01T20:02:28.925Z,37.25
2022-12-01T20:20:36.610Z,29.77
2022-12-01T20:26:56.969Z,32.35
2022-12-01T20:45:07.083Z,27.95
2022-12-01T20:51:25.580Z,26.98
2022-12-01T21:09:32.986Z,45.20
2022-12-01T21:15:57.334Z,35.65
2022-12-01T21:34:21.801Z,25.52
2022-12-01T21:40:43.099Z,22.35
2022-12-01T21:59:24.246Z,31.70
2022-12-01T22:06:28.342Z,28.90
2022-12-01T22:24:47.486Z,27.45
2022-12-01T22:31:15.452Z,31.50
2022-12-01T22:49:45.423Z,25.67
2022-12-01T22:56:03.972Z,31.55
2022-12-01T23:14:33.160Z,29.27
2022-12-01T23:20:53.236Z,30.55
2022-12-01T23:39:33.078Z,21.45
2022-12-01T23:45:27.559Z,24.92
2022-12-01T23:51:48.442Z,31.83
